sensor_id;sensor_type;location;lat;lon;timestamp;P1;durP1;ratioP1;P2;durP2;ratioP2
83272;SDS011;73177;51.584;5.188;2024-03-08T00:01:14;34.80;;;15.63;;
83272;SDS011;73177;51.584;5.188;2024-03-08T00:03:41;39.10;;;15.38;;
83272;SDS011;73177;51.584;5.188;2024-03-08T00:06:07;34.90;;;15.27;;
83272;SDS011;73177;51.584;5.188;2024-03-08T00:08:32;31.65;;;13.95;;
83272;SDS011;73177;51.584;5.188;2024-03-08T00:10:57;35.53;;;16.42;;
83272;SDS011;73177;51.584;5.188;2024-03-08T00:13:23;41.00;;;15.77;;
83272;SDS011;73177;51.584;5.188;2024-03-08T00:15:50;36.35;;;13.98;;
83272;SDS011;73177;51.584;5.188;2024-03-08T00:18:15;36.15;;;15.35;;
83272;SDS011;73177;51.584;5.188;2024-03-08T00:20:41;36.83;;;15.40;;
83272;SDS011;73177;51.584;5.188;2024-03-08T00:23:08;37.40;;;15.07;;
83272;SDS011;73177;51.584;5.188;2024-03-08T00:25:35;35.15;;;14.93;;
83272;SDS011;73177;51.584;5.188;2024-03-08T00:28:01;36.25;;;15.02;;
83272;SDS011;73177;51.584;5.188;2024-03-08T00:30:26;41.30;;;15.67;;
83272;SDS011;73177;51.584;5.188;2024-03-08T00:32:51;33.65;;;14.65;;
83272;SDS011;73177;51.584;5.188;2024-03-08T00:35:17;37.20;;;14.77;;
83272;SDS011;73177;51.584;5.188;2024-03-08T00:37:43;30.33;;;13.95;;
83272;SDS011;73177;51.584;5.188;2024-03-08T00:40:11;35.13;;;15.13;;
83272;SDS011;73177;51.584;5.188;2024-03-08T00:42:37;29.02;;;13.52;;
83272;SDS011;73177;51.584;5.188;2024-03-08T00:45:03;33.35;;;15.23;;
83272;SDS011;73177;51.584;5.188;2024-03-08T00:47:29;36.22;;;15.27;;
83272;SDS011;73177;51.584;5.188;2024-03-08T00:49:54;32.30;;;14.00;;
83272;SDS011;73177;51.584;5.188;2024-03-08T00:52:21;32.35;;;14.13;;
83272;SDS011;73177;51.584;5.188;2024-03-08T00:54:49;27.90;;;13.63;;
83272;SDS011;73177;51.584;5.188;2024-03-08T00:57:14;36.92;;;14.13;;
83272;SDS011;73177;51.584;5.188;2024-03-08T00:59:39;29.83;;;14.45;;
83272;SDS011;73177;51.584;5.188;2024-03-08T01:02:05;33.67;;;15.50;;
83272;SDS011;73177;51.584;5.188;2024-03-08T01:04:31;30.90;;;13.82;;
83272;SDS011;73177;51.584;5.188;2024-03-08T01:06:57;30.13;;;13.82;;
83272;SDS011;73177;51.584;5.188;2024-03-08T01:11:49;28.35;;;12.40;;
83272;SDS011;73177;51.584;5.188;2024-03-08T01:14:15;30.27;;;13.95;;
83272;SDS011;73177;51.584;5.188;2024-03-08T01:16:40;32.53;;;15.25;;
83272;SDS011;73177;51.584;5.188;2024-03-08T01:19:06;31.88;;;14.43;;
83272;SDS011;73177;51.584;5.188;2024-03-08T01:21:31;26.88;;;12.65;;
83272;SDS011;73177;51.584;5.188;2024-03-08T01:23:57;29.55;;;13.43;;
83272;SDS011;73177;51.584;5.188;2024-03-08T01:26:22;30.60;;;12.82;;
83272;SDS011;73177;51.584;5.188;2024-03-08T01:28:48;29.02;;;13.80;;
83272;SDS011;73177;51.584;5.188;2024-03-08T01:31:14;29.02;;;13.93;;
83272;SDS011;73177;51.584;5.188;2024-03-08T01:33:40;30.38;;;13.38;;
83272;SDS011;73177;51.584;5.188;2024-03-08T01:36:06;29.20;;;15.15;;
83272;SDS011;73177;51.584;5.188;2024-03-08T01:38:31;31.83;;;13.75;;
83272;SDS011;73177;51.584;5.188;2024-03-08T01:40:57;29.13;;;13.95;;
83272;SDS011;73177;51.584;5.188;2024-03-08T01:43:25;26.42;;;12.73;;
83272;SDS011;73177;51.584;5.188;2024-03-08T01:45:54;32.05;;;14.90;;
83272;SDS011;73177;51.584;5.188;2024-03-08T01:48:23;32.75;;;14.15;;
83272;SDS011;73177;51.584;5.188;2024-03-08T01:50:49;32.10;;;14.00;;
83272;SDS011;73177;51.584;5.188;2024-03-08T01:53:16;31.05;;;14.30;;
83272;SDS011;73177;51.584;5.188;2024-03-08T01:55:43;32.70;;;14.65;;
83272;SDS011;73177;51.584;5.188;2024-03-08T01:58:11;27.65;;;13.55;;
83272;SDS011;73177;51.584;5.188;2024-03-08T02:00:40;25.63;;;13.23;;
83272;SDS011;73177;51.584;5.188;2024-03-08T02:03:08;29.30;;;13.15;;
83272;SDS011;73177;51.584;5.188;2024-03-08T02:05:34;31.48;;;14.40;;
83272;SDS011;73177;51.584;5.188;2024-03-08T02:08:00;34.13;;;14.38;;
83272;SDS011;73177;51.584;5.188;2024-03-08T02:10:27;27.35;;;13.70;;
83272;SDS011;73177;51.584;5.188;2024-03-08T02:12:53;26.70;;;13.15;;
83272;SDS011;73177;51.584;5.188;2024-03-08T02:15:19;34.10;;;15.35;;
83272;SDS011;73177;51.584;5.188;2024-03-08T02:17:44;31.10;;;14.73;;
83272;SDS011;73177;51.584;5.188;2024-03-08T02:20:10;27.98;;;12.60;;
83272;SDS011;73177;51.584;5.188;2024-03-08T02:22:38;30.40;;;14.57;;
83272;SDS011;73177;51.584;5.188;2024-03-08T02:25:03;29.95;;;13.93;;
83272;SDS011;73177;51.584;5.188;2024-03-08T02:27:30;30.40;;;14.63;;
83272;SDS011;73177;51.584;5.188;2024-03-08T02:29:56;31.65;;;13.50;;
83272;SDS011;73177;51.584;5.188;2024-03-08T02:34:50;31.02;;;14.23;;
83272;SDS011;73177;51.584;5.188;2024-03-08T02:37:16;31.52;;;13.35;;
83272;SDS011;73177;51.584;5.188;2024-03-08T02:39:42;32.83;;;14.85;;
83272;SDS011;73177;51.584;5.188;2024-03-08T02:42:08;25.45;;;13.23;;
83272;SDS011;73177;51.584;5.188;2024-03-08T02:44:33;32.47;;;14.68;;
83272;SDS011;73177;51.584;5.188;2024-03-08T02:46:59;33.97;;;16.27;;
83272;SDS011;73177;51.584;5.188;2024-03-08T02:49:25;26.63;;;12.98;;
83272;SDS011;73177;51.584;5.188;2024-03-08T02:51:51;31.55;;;15.10;;
83272;SDS011;73177;51.584;5.188;2024-03-08T02:54:17;31.08;;;15.45;;
83272;SDS011;73177;51.584;5.188;2024-03-08T02:56:42;29.93;;;14.07;;
83272;SDS011;73177;51.584;5.188;2024-03-08T02:59:07;29.17;;;15.20;;
83272;SDS011;73177;51.584;5.188;2024-03-08T03:01:33;32.75;;;14.93;;
83272;SDS011;73177;51.584;5.188;2024-03-08T03:04:00;31.90;;;14.45;;
83272;SDS011;73177;51.584;5.188;2024-03-08T03:06:25;26.50;;;13.33;;
83272;SDS011;73177;51.584;5.188;2024-03-08T03:08:51;31.95;;;15.30;;
83272;SDS011;73177;51.584;5.188;2024-03-08T03:11:16;28.58;;;13.68;;
83272;SDS011;73177;51.584;5.188;2024-03-08T03:13:42;28.77;;;13.77;;
83272;SDS011;73177;51.584;5.188;2024-03-08T03:16:16;31.10;;;15.38;;
83272;SDS011;73177;51.584;5.188;2024-03-08T03:18:43;32.75;;;14.15;;
83272;SDS011;73177;51.584;5.188;2024-03-08T03:21:09;30.50;;;14.07;;
83272;SDS011;73177;51.584;5.188;2024-03-08T03:23:34;30.37;;;14.87;;
83272;SDS011;73177;51.584;5.188;2024-03-08T03:26:00;30.17;;;14.03;;
83272;SDS011;73177;51.584;5.188;2024-03-08T03:28:27;27.30;;;13.90;;
83272;SDS011;73177;51.584;5.188;2024-03-08T03:30:53;28.50;;;12.75;;
83272;SDS011;73177;51.584;5.188;2024-03-08T03:33:18;30.10;;;15.03;;
83272;SDS011;73177;51.584;5.188;2024-03-08T03:35:44;26.25;;;14.75;;
83272;SDS011;73177;51.584;5.188;2024-03-08T03:38:09;31.27;;;14.45;;
83272;SDS011;73177;51.584;5.188;2024-03-08T03:40:35;28.58;;;14.32;;
83272;SDS011;73177;51.584;5.188;2024-03-08T03:43:04;31.00;;;14.73;;
83272;SDS011;73177;51.584;5.188;2024-03-08T03:45:29;30.30;;;15.05;;
83272;SDS011;73177;51.584;5.188;2024-03-08T03:48:00;27.45;;;14.32;;
83272;SDS011;73177;51.584;5.188;2024-03-08T03:50:33;29.17;;;14.18;;
83272;SDS011;73177;51.584;5.188;2024-03-08T03:52:59;32.47;;;15.48;;
83272;SDS011;73177;51.584;5.188;2024-03-08T03:55:25;31.83;;;14.23;;
83272;SDS011;73177;51.584;5.188;2024-03-08T03:57:50;31.23;;;14.88;;
83272;SDS011;73177;51.584;5.188;2024-03-08T04:00:16;34.80;;;15.30;;
83272;SDS011;73177;51.584;5.188;2024-03-08T04:02:41;34.10;;;15.90;;
83272;SDS011;73177;51.584;5.188;2024-03-08T04:05:07;35.53;;;14.23;;
83272;SDS011;73177;51.584;5.188;2024-03-08T04:07:34;31.67;;;14.63;;
83272;SDS011;73177;51.584;5.188;2024-03-08T04:10:04;36.58;;;15.93;;
83272;SDS011;73177;51.584;5.188;2024-03-08T04:12:34;31.10;;;15.07;;
83272;SDS011;73177;51.584;5.188;2024-03-08T04:14:59;34.75;;;15.15;;
83272;SDS011;73177;51.584;5.188;2024-03-08T04:17:25;32.17;;;15.35;;
83272;SDS011;73177;51.584;5.188;2024-03-08T04:19:51;27.08;;;14.90;;
83272;SDS011;73177;51.584;5.188;2024-03-08T04:22:16;31.20;;;14.82;;
83272;SDS011;73177;51.584;5.188;2024-03-08T04:24:43;38.67;;;17.10;;
83272;SDS011;73177;51.584;5.188;2024-03-08T04:27:09;32.13;;;15.32;;
83272;SDS011;73177;51.584;5.188;2024-03-08T04:29:34;36.92;;;16.65;;
83272;SDS011;73177;51.584;5.188;2024-03-08T04:32:00;35.15;;;14.65;;
83272;SDS011;73177;51.584;5.188;2024-03-08T04:34:28;32.42;;;15.77;;
83272;SDS011;73177;51.584;5.188;2024-03-08T04:36:54;34.08;;;16.25;;
83272;SDS011;73177;51.584;5.188;2024-03-08T04:39:19;36.15;;;15.85;;
83272;SDS011;73177;51.584;5.188;2024-03-08T04:41:46;35.30;;;16.55;;
83272;SDS011;73177;51.584;5.188;2024-03-08T04:44:12;32.10;;;15.05;;
83272;SDS011;73177;51.584;5.188;2024-03-08T04:46:38;33.80;;;16.55;;
83272;SDS011;73177;51.584;5.188;2024-03-08T04:49:03;31.33;;;15.95;;
83272;SDS011;73177;51.584;5.188;2024-03-08T04:51:28;32.58;;;16.00;;
83272;SDS011;73177;51.584;5.188;2024-03-08T04:53:54;35.10;;;15.32;;
83272;SDS011;73177;51.584;5.188;2024-03-08T04:56:19;34.65;;;16.05;;
83272;SDS011;73177;51.584;5.188;2024-03-08T04:58:45;33.45;;;15.75;;
83272;SDS011;73177;51.584;5.188;2024-03-08T05:01:14;29.40;;;15.20;;
83272;SDS011;73177;51.584;5.188;2024-03-08T05:03:40;32.65;;;15.32;;
83272;SDS011;73177;51.584;5.188;2024-03-08T05:06:05;34.17;;;15.33;;
83272;SDS011;73177;51.584;5.188;2024-03-08T05:08:31;33.67;;;15.43;;
83272;SDS011;73177;51.584;5.188;2024-03-08T05:10:56;30.10;;;15.27;;
83272;SDS011;73177;51.584;5.188;2024-03-08T05:13:22;31.17;;;14.45;;
83272;SDS011;73177;51.584;5.188;2024-03-08T05:15:48;35.33;;;15.85;;
83272;SDS011;73177;51.584;5.188;2024-03-08T05:18:15;32.53;;;15.32;;
83272;SDS011;73177;51.584;5.188;2024-03-08T05:20:40;29.85;;;15.32;;
83272;SDS011;73177;51.584;5.188;2024-03-08T05:23:06;32.03;;;15.05;;
83272;SDS011;73177;51.584;5.188;2024-03-08T05:25:31;33.30;;;14.45;;
83272;SDS011;73177;51.584;5.188;2024-03-08T05:27:57;38.72;;;17.20;;
83272;SDS011;73177;51.584;5.188;2024-03-08T05:30:23;32.08;;;16.83;;
83272;SDS011;73177;51.584;5.188;2024-03-08T05:32:48;35.47;;;16.42;;
83272;SDS011;73177;51.584;5.188;2024-03-08T05:35:14;34.15;;;15.32;;
83272;SDS011;73177;51.584;5.188;2024-03-08T05:37:41;35.83;;;16.73;;
83272;SDS011;73177;51.584;5.188;2024-03-08T05:40:07;37.83;;;15.75;;
83272;SDS011;73177;51.584;5.188;2024-03-08T05:42:38;32.65;;;14.70;;
83272;SDS011;73177;51.584;5.188;2024-03-08T05:45:04;33.67;;;16.88;;
83272;SDS011;73177;51.584;5.188;2024-03-08T05:47:31;37.95;;;16.20;;
83272;SDS011;73177;51.584;5.188;2024-03-08T05:50:00;35.60;;;16.08;;
83272;SDS011;73177;51.584;5.188;2024-03-08T05:52:25;33.33;;;14.63;;
83272;SDS011;73177;51.584;5.188;2024-03-08T05:54:51;36.30;;;16.15;;
83272;SDS011;73177;51.584;5.188;2024-03-08T05:57:16;41.35;;;18.23;;
83272;SDS011;73177;51.584;5.188;2024-03-08T05:59:42;34.72;;;17.08;;
83272;SDS011;73177;51.584;5.188;2024-03-08T06:02:07;38.30;;;15.73;;
83272;SDS011;73177;51.584;5.188;2024-03-08T06:04:32;34.67;;;16.73;;
83272;SDS011;73177;51.584;5.188;2024-03-08T06:06:58;35.60;;;17.37;;
83272;SDS011;73177;51.584;5.188;2024-03-08T06:09:24;35.55;;;17.48;;
83272;SDS011;73177;51.584;5.188;2024-03-08T06:11:50;37.72;;;16.63;;
83272;SDS011;73177;51.584;5.188;2024-03-08T06:14:16;38.88;;;18.08;;
83272;SDS011;73177;51.584;5.188;2024-03-08T06:16:44;34.80;;;16.60;;
83272;SDS011;73177;51.584;5.188;2024-03-08T06:19:10;38.35;;;17.05;;
83272;SDS011;73177;51.584;5.188;2024-03-08T06:21:37;31.92;;;16.77;;
83272;SDS011;73177;51.584;5.188;2024-03-08T06:24:03;33.33;;;16.00;;
83272;SDS011;73177;51.584;5.188;2024-03-08T06:26:29;38.65;;;18.23;;
83272;SDS011;73177;51.584;5.188;2024-03-08T06:28:55;34.72;;;16.85;;
83272;SDS011;73177;51.584;5.188;2024-03-08T06:31:20;40.83;;;17.83;;
83272;SDS011;73177;51.584;5.188;2024-03-08T06:33:45;34.08;;;15.05;;
83272;SDS011;73177;51.584;5.188;2024-03-08T06:36:11;34.30;;;15.80;;
83272;SDS011;73177;51.584;5.188;2024-03-08T06:38:37;36.95;;;17.63;;
83272;SDS011;73177;51.584;5.188;2024-03-08T06:41:07;39.50;;;18.15;;
83272;SDS011;73177;51.584;5.188;2024-03-08T06:43:34;33.13;;;16.48;;
83272;SDS011;73177;51.584;5.188;2024-03-08T06:45:59;33.80;;;16.55;;
83272;SDS011;73177;51.584;5.188;2024-03-08T06:48:25;36.60;;;17.00;;
83272;SDS011;73177;51.584;5.188;2024-03-08T06:50:50;36.85;;;16.67;;
83272;SDS011;73177;51.584;5.188;2024-03-08T06:53:16;33.70;;;16.77;;
83272;SDS011;73177;51.584;5.188;2024-03-08T06:55:44;29.85;;;14.65;;
83272;SDS011;73177;51.584;5.188;2024-03-08T06:58:09;35.13;;;16.20;;
83272;SDS011;73177;51.584;5.188;2024-03-08T07:00:35;32.17;;;15.75;;
83272;SDS011;73177;51.584;5.188;2024-03-08T07:03:01;29.42;;;13.27;;
83272;SDS011;73177;51.584;5.188;2024-03-08T07:05:27;34.30;;;15.90;;
83272;SDS011;73177;51.584;5.188;2024-03-08T07:07:54;35.15;;;16.30;;
83272;SDS011;73177;51.584;5.188;2024-03-08T07:10:20;37.50;;;16.88;;
83272;SDS011;73177;51.584;5.188;2024-03-08T07:12:48;35.60;;;16.02;;
83272;SDS011;73177;51.584;5.188;2024-03-08T07:15:14;32.25;;;15.18;;
83272;SDS011;73177;51.584;5.188;2024-03-08T07:17:40;32.80;;;15.77;;
83272;SDS011;73177;51.584;5.188;2024-03-08T07:20:06;39.50;;;17.13;;
83272;SDS011;73177;51.584;5.188;2024-03-08T07:22:37;31.48;;;15.70;;
83272;SDS011;73177;51.584;5.188;2024-03-08T07:25:04;35.00;;;16.35;;
83272;SDS011;73177;51.584;5.188;2024-03-08T07:27:33;36.78;;;15.43;;
83272;SDS011;73177;51.584;5.188;2024-03-08T07:30:02;32.65;;;15.25;;
83272;SDS011;73177;51.584;5.188;2024-03-08T07:34:55;29.13;;;14.25;;
83272;SDS011;73177;51.584;5.188;2024-03-08T07:37:21;31.05;;;15.20;;
83272;SDS011;73177;51.584;5.188;2024-03-08T07:39:46;34.22;;;16.40;;
83272;SDS011;73177;51.584;5.188;2024-03-08T07:42:11;34.92;;;15.23;;
83272;SDS011;73177;51.584;5.188;2024-03-08T07:44:37;33.03;;;15.35;;
83272;SDS011;73177;51.584;5.188;2024-03-08T07:47:03;28.95;;;15.30;;
83272;SDS011;73177;51.584;5.188;2024-03-08T07:49:28;27.63;;;13.80;;
83272;SDS011;73177;51.584;5.188;2024-03-08T07:51:55;30.17;;;14.57;;
83272;SDS011;73177;51.584;5.188;2024-03-08T07:54:21;30.92;;;14.15;;
83272;SDS011;73177;51.584;5.188;2024-03-08T07:56:46;24.00;;;13.33;;
83272;SDS011;73177;51.584;5.188;2024-03-08T07:59:12;28.80;;;15.00;;
83272;SDS011;73177;51.584;5.188;2024-03-08T08:01:37;30.83;;;15.63;;
83272;SDS011;73177;51.584;5.188;2024-03-08T08:04:03;31.17;;;15.23;;
83272;SDS011;73177;51.584;5.188;2024-03-08T08:06:28;32.83;;;14.55;;
83272;SDS011;73177;51.584;5.188;2024-03-08T08:08:56;30.85;;;13.77;;
83272;SDS011;73177;51.584;5.188;2024-03-08T08:11:22;29.58;;;14.38;;
83272;SDS011;73177;51.584;5.188;2024-03-08T08:13:47;32.95;;;15.00;;
83272;SDS011;73177;51.584;5.188;2024-03-08T08:16:13;35.17;;;14.83;;
83272;SDS011;73177;51.584;5.188;2024-03-08T08:18:38;30.55;;;15.18;;
83272;SDS011;73177;51.584;5.188;2024-03-08T08:21:04;32.95;;;15.88;;
83272;SDS011;73177;51.584;5.188;2024-03-08T08:23:31;27.55;;;15.18;;
83272;SDS011;73177;51.584;5.188;2024-03-08T08:25:57;29.83;;;14.57;;
83272;SDS011;73177;51.584;5.188;2024-03-08T08:28:22;25.60;;;14.00;;
83272;SDS011;73177;51.584;5.188;2024-03-08T08:30:48;27.77;;;15.20;;
83272;SDS011;73177;51.584;5.188;2024-03-08T08:33:16;25.88;;;14.10;;
83272;SDS011;73177;51.584;5.188;2024-03-08T08:35:41;26.20;;;13.70;;
83272;SDS011;73177;51.584;5.188;2024-03-08T08:40:33;25.25;;;13.05;;
83272;SDS011;73177;51.584;5.188;2024-03-08T08:43:01;28.45;;;14.35;;
83272;SDS011;73177;51.584;5.188;2024-03-08T08:45:29;28.65;;;14.38;;
83272;SDS011;73177;51.584;5.188;2024-03-08T08:47:57;27.02;;;13.45;;
83272;SDS011;73177;51.584;5.188;2024-03-08T08:50:24;29.48;;;14.15;;
83272;SDS011;73177;51.584;5.188;2024-03-08T08:52:51;27.83;;;14.57;;
83272;SDS011;73177;51.584;5.188;2024-03-08T08:55:17;28.90;;;15.05;;
83272;SDS011;73177;51.584;5.188;2024-03-08T08:57:46;25.55;;;14.10;;
83272;SDS011;73177;51.584;5.188;2024-03-08T09:00:12;23.27;;;13.30;;
83272;SDS011;73177;51.584;5.188;2024-03-08T09:02:40;26.00;;;14.00;;
83272;SDS011;73177;51.584;5.188;2024-03-08T09:05:06;25.02;;;13.88;;
83272;SDS011;73177;51.584;5.188;2024-03-08T09:07:35;27.65;;;13.27;;
83272;SDS011;73177;51.584;5.188;2024-03-08T09:12:25;24.87;;;13.17;;
83272;SDS011;73177;51.584;5.188;2024-03-08T09:17:16;26.70;;;13.45;;
83272;SDS011;73177;51.584;5.188;2024-03-08T09:19:45;21.73;;;12.10;;
83272;SDS011;73177;51.584;5.188;2024-03-08T09:22:12;19.92;;;11.90;;
83272;SDS011;73177;51.584;5.188;2024-03-08T09:27:03;22.93;;;11.20;;
83272;SDS011;73177;51.584;5.188;2024-03-08T09:31:54;25.37;;;12.57;;
83272;SDS011;73177;51.584;5.188;2024-03-08T09:34:19;25.80;;;13.50;;
83272;SDS011;73177;51.584;5.188;2024-03-08T09:36:45;24.00;;;12.95;;
83272;SDS011;73177;51.584;5.188;2024-03-08T09:41:41;24.42;;;13.30;;
83272;SDS011;73177;51.584;5.188;2024-03-08T09:44:07;23.45;;;12.90;;
83272;SDS011;73177;51.584;5.188;2024-03-08T09:46:34;29.63;;;13.77;;
83272;SDS011;73177;51.584;5.188;2024-03-08T09:51:28;22.52;;;12.00;;
83272;SDS011;73177;51.584;5.188;2024-03-08T09:53:54;21.77;;;11.18;;
83272;SDS011;73177;51.584;5.188;2024-03-08T09:58:45;24.17;;;12.32;;
83272;SDS011;73177;51.584;5.188;2024-03-08T10:01:42;28.63;;;12.65;;
83272;SDS011;73177;51.584;5.188;2024-03-08T10:04:09;18.67;;;10.38;;
83272;SDS011;73177;51.584;5.188;2024-03-08T10:09:01;21.75;;;11.05;;
83272;SDS011;73177;51.584;5.188;2024-03-08T10:11:26;19.83;;;10.80;;
83272;SDS011;73177;51.584;5.188;2024-03-08T10:13:51;19.83;;;10.88;;
83272;SDS011;73177;51.584;5.188;2024-03-08T10:16:17;20.52;;;10.90;;
83272;SDS011;73177;51.584;5.188;2024-03-08T10:18:45;24.98;;;11.90;;
83272;SDS011;73177;51.584;5.188;2024-03-08T10:21:11;20.23;;;11.60;;
83272;SDS011;73177;51.584;5.188;2024-03-08T10:23:36;22.08;;;11.77;;
83272;SDS011;73177;51.584;5.188;2024-03-08T10:26:12;22.48;;;12.23;;
83272;SDS011;73177;51.584;5.188;2024-03-08T10:28:40;22.20;;;11.30;;
83272;SDS011;73177;51.584;5.188;2024-03-08T10:31:09;19.90;;;11.63;;
83272;SDS011;73177;51.584;5.188;2024-03-08T10:33:35;25.50;;;11.90;;
83272;SDS011;73177;51.584;5.188;2024-03-08T10:36:03;24.52;;;11.80;;
83272;SDS011;73177;51.584;5.188;2024-03-08T10:38:28;20.80;;;10.82;;
83272;SDS011;73177;51.584;5.188;2024-03-08T10:40:57;23.25;;;11.02;;
83272;SDS011;73177;51.584;5.188;2024-03-08T10:43:24;23.02;;;10.68;;
83272;SDS011;73177;51.584;5.188;2024-03-08T10:46:11;20.58;;;11.00;;
83272;SDS011;73177;51.584;5.188;2024-03-08T10:48:48;21.13;;;10.80;;
83272;SDS011;73177;51.584;5.188;2024-03-08T10:51:15;22.63;;;11.55;;
83272;SDS011;73177;51.584;5.188;2024-03-08T10:53:41;20.63;;;10.52;;
83272;SDS011;73177;51.584;5.188;2024-03-08T10:56:07;19.67;;;10.63;;
83272;SDS011;73177;51.584;5.188;2024-03-08T10:58:35;23.13;;;12.60;;
83272;SDS011;73177;51.584;5.188;2024-03-08T11:01:02;19.20;;;11.13;;
83272;SDS011;73177;51.584;5.188;2024-03-08T11:09:02;18.98;;;10.00;;
83272;SDS011;73177;51.584;5.188;2024-03-08T11:11:38;23.80;;;11.45;;
83272;SDS011;73177;51.584;5.188;2024-03-08T11:14:07;21.23;;;11.05;;
83272;SDS011;73177;51.584;5.188;2024-03-08T11:17:09;16.70;;;9.60;;
83272;SDS011;73177;51.584;5.188;2024-03-08T11:22:00;23.13;;;11.90;;
83272;SDS011;73177;51.584;5.188;2024-03-08T11:24:27;21.60;;;10.98;;
83272;SDS011;73177;51.584;5.188;2024-03-08T11:34:19;19.57;;;10.13;;
83272;SDS011;73177;51.584;5.188;2024-03-08T11:36:47;18.45;;;10.07;;
83272;SDS011;73177;51.584;5.188;2024-03-08T11:39:13;20.50;;;10.43;;
83272;SDS011;73177;51.584;5.188;2024-03-08T11:41:39;23.83;;;11.57;;
83272;SDS011;73177;51.584;5.188;2024-03-08T11:44:06;18.13;;;9.85;;
83272;SDS011;73177;51.584;5.188;2024-03-08T11:46:33;18.48;;;10.50;;
83272;SDS011;73177;51.584;5.188;2024-03-08T11:51:25;19.90;;;10.40;;
83272;SDS011;73177;51.584;5.188;2024-03-08T11:53:51;23.33;;;10.93;;
83272;SDS011;73177;51.584;5.188;2024-03-08T11:58:52;19.75;;;10.52;;
83272;SDS011;73177;51.584;5.188;2024-03-08T12:01:19;18.65;;;9.73;;
83272;SDS011;73177;51.584;5.188;2024-03-08T12:06:17;13.13;;;7.40;;
83272;SDS011;73177;51.584;5.188;2024-03-08T12:11:08;11.10;;;6.78;;
83272;SDS011;73177;51.584;5.188;2024-03-08T12:13:35;17.27;;;8.15;;
83272;SDS011;73177;51.584;5.188;2024-03-08T12:16:02;14.57;;;7.80;;
83272;SDS011;73177;51.584;5.188;2024-03-08T12:18:34;15.68;;;7.85;;
83272;SDS011;73177;51.584;5.188;2024-03-08T12:21:09;18.25;;;7.78;;
83272;SDS011;73177;51.584;5.188;2024-03-08T12:23:36;13.82;;;8.13;;
83272;SDS011;73177;51.584;5.188;2024-03-08T12:26:16;18.63;;;8.70;;
83272;SDS011;73177;51.584;5.188;2024-03-08T12:28:43;18.67;;;8.35;;
83272;SDS011;73177;51.584;5.188;2024-03-08T12:31:13;16.60;;;8.10;;
83272;SDS011;73177;51.584;5.188;2024-03-08T12:36:17;15.75;;;8.65;;
83272;SDS011;73177;51.584;5.188;2024-03-08T12:38:45;24.40;;;8.55;;
83272;SDS011;73177;51.584;5.188;2024-03-08T12:41:18;16.42;;;8.75;;
83272;SDS011;73177;51.584;5.188;2024-03-08T12:43:47;34.40;;;8.18;;
83272;SDS011;73177;51.584;5.188;2024-03-08T12:51:10;14.80;;;7.68;;
83272;SDS011;73177;51.584;5.188;2024-03-08T12:56:01;18.43;;;9.13;;
83272;SDS011;73177;51.584;5.188;2024-03-08T12:58:28;15.02;;;7.70;;
83272;SDS011;73177;51.584;5.188;2024-03-08T13:03:19;13.60;;;7.07;;
83272;SDS011;73177;51.584;5.188;2024-03-08T13:08:10;14.30;;;7.20;;
83272;SDS011;73177;51.584;5.188;2024-03-08T13:10:39;15.80;;;7.78;;
83272;SDS011;73177;51.584;5.188;2024-03-08T13:13:08;13.55;;;7.90;;
83272;SDS011;73177;51.584;5.188;2024-03-08T13:15:34;20.52;;;7.75;;
83272;SDS011;73177;51.584;5.188;2024-03-08T13:20:26;15.30;;;7.50;;
83272;SDS011;73177;51.584;5.188;2024-03-08T13:22:53;13.20;;;7.47;;
83272;SDS011;73177;51.584;5.188;2024-03-08T13:27:45;12.60;;;6.80;;
83272;SDS011;73177;51.584;5.188;2024-03-08T13:30:12;14.70;;;7.63;;
83272;SDS011;73177;51.584;5.188;2024-03-08T13:32:42;17.25;;;8.20;;
83272;SDS011;73177;51.584;5.188;2024-03-08T13:35:11;13.40;;;7.28;;
83272;SDS011;73177;51.584;5.188;2024-03-08T13:37:41;17.90;;;8.73;;
83272;SDS011;73177;51.584;5.188;2024-03-08T13:40:07;15.98;;;8.77;;
83272;SDS011;73177;51.584;5.188;2024-03-08T13:42:39;14.73;;;7.13;;
83272;SDS011;73177;51.584;5.188;2024-03-08T13:45:06;16.65;;;8.27;;
83272;SDS011;73177;51.584;5.188;2024-03-08T13:47:39;15.60;;;8.10;;
83272;SDS011;73177;51.584;5.188;2024-03-08T13:50:08;18.10;;;7.80;;
83272;SDS011;73177;51.584;5.188;2024-03-08T13:52:38;14.23;;;7.93;;
83272;SDS011;73177;51.584;5.188;2024-03-08T13:55:05;18.25;;;8.13;;
83272;SDS011;73177;51.584;5.188;2024-03-08T13:57:31;13.10;;;7.72;;
83272;SDS011;73177;51.584;5.188;2024-03-08T13:59:59;16.48;;;7.90;;
83272;SDS011;73177;51.584;5.188;2024-03-08T14:04:54;18.83;;;8.18;;
83272;SDS011;73177;51.584;5.188;2024-03-08T14:09:48;12.35;;;6.82;;
83272;SDS011;73177;51.584;5.188;2024-03-08T14:12:15;14.88;;;7.50;;
83272;SDS011;73177;51.584;5.188;2024-03-08T14:17:07;21.40;;;8.50;;
83272;SDS011;73177;51.584;5.188;2024-03-08T14:19:34;14.98;;;8.57;;
83272;SDS011;73177;51.584;5.188;2024-03-08T14:24:29;13.73;;;6.90;;
83272;SDS011;73177;51.584;5.188;2024-03-08T14:26:55;15.18;;;7.40;;
83272;SDS011;73177;51.584;5.188;2024-03-08T14:31:46;13.98;;;7.03;;
83272;SDS011;73177;51.584;5.188;2024-03-08T14:36:39;14.88;;;7.45;;
83272;SDS011;73177;51.584;5.188;2024-03-08T14:41:32;15.98;;;8.05;;
83272;SDS011;73177;51.584;5.188;2024-03-08T14:46:30;13.68;;;7.07;;
83272;SDS011;73177;51.584;5.188;2024-03-08T14:49:00;14.50;;;7.13;;
83272;SDS011;73177;51.584;5.188;2024-03-08T14:51:25;16.05;;;7.78;;
83272;SDS011;73177;51.584;5.188;2024-03-08T14:53:56;13.52;;;8.00;;
83272;SDS011;73177;51.584;5.188;2024-03-08T14:56:23;14.85;;;6.68;;
83272;SDS011;73177;51.584;5.188;2024-03-08T14:58:52;14.82;;;7.85;;
83272;SDS011;73177;51.584;5.188;2024-03-08T15:01:23;12.70;;;7.03;;
83272;SDS011;73177;51.584;5.188;2024-03-08T15:06:15;16.25;;;7.28;;
83272;SDS011;73177;51.584;5.188;2024-03-08T15:08:46;13.82;;;7.28;;
83272;SDS011;73177;51.584;5.188;2024-03-08T15:11:12;12.77;;;6.43;;
83272;SDS011;73177;51.584;5.188;2024-03-08T15:13:43;11.13;;;6.85;;
83272;SDS011;73177;51.584;5.188;2024-03-08T15:16:10;12.55;;;7.15;;
83272;SDS011;73177;51.584;5.188;2024-03-08T15:18:48;17.23;;;7.65;;
83272;SDS011;73177;51.584;5.188;2024-03-08T15:21:16;12.63;;;7.50;;
83272;SDS011;73177;51.584;5.188;2024-03-08T15:23:45;10.75;;;6.45;;
83272;SDS011;73177;51.584;5.188;2024-03-08T15:26:17;12.55;;;6.95;;
83272;SDS011;73177;51.584;5.188;2024-03-08T15:28:43;15.52;;;8.75;;
83272;SDS011;73177;51.584;5.188;2024-03-08T15:31:10;15.43;;;8.25;;
83272;SDS011;73177;51.584;5.188;2024-03-08T15:33:37;17.50;;;8.57;;
83272;SDS011;73177;51.584;5.188;2024-03-08T15:36:11;22.10;;;11.25;;
83272;SDS011;73177;51.584;5.188;2024-03-08T15:38:39;24.45;;;12.23;;
83272;SDS011;73177;51.584;5.188;2024-03-08T15:46:06;27.90;;;11.15;;
83272;SDS011;73177;51.584;5.188;2024-03-08T15:48:36;20.90;;;10.38;;
83272;SDS011;73177;51.584;5.188;2024-03-08T15:51:07;19.40;;;10.32;;
83272;SDS011;73177;51.584;5.188;2024-03-08T15:53:43;23.35;;;10.82;;
83272;SDS011;73177;51.584;5.188;2024-03-08T15:56:17;21.83;;;10.88;;
83272;SDS011;73177;51.584;5.188;2024-03-08T15:58:44;20.45;;;11.00;;
83272;SDS011;73177;51.584;5.188;2024-03-08T16:03:37;20.80;;;11.85;;
83272;SDS011;73177;51.584;5.188;2024-03-08T16:08:31;21.40;;;10.77;;